KARR/ARR METAR and TAF weather

Enter ICAO airport designator
Station Type Date Time Source
KARR METAR 2018/01/22 11:52 UTC NOAA

KARR 221152Z AUTO 12010KT 2SM VCTS +RA BR BKN004 BKN014 OVC033 09/09 A2962 RMK AO2 LTG DSNT NE-S TSB36E51 SLP033 P0027 60052 70052 T00890089 10089 20067 56029


Station Type Date Time Source
KARR Decoded METAR 2018/01/22 11:52 UTC NOAA

CHICAGO AURORA MUNICIPAL, IL, United States (KARR) 41-46N 088-28W 215M
Jan 22, 2018 - 06:52 AM EST / 2018.01.22 1152 UTC
Wind: from the ESE (120 degrees) at 12 MPH (10 KT):0
Visibility: 2 mile(s):0
Sky conditions: overcast
Weather: thunder in the vicinity; heavy rain; mist; Lightning observed
Precipitation last hour: 0.27 inches
Temperature: 48.0 F (8.9 C)
Dew Point: 48.0 F (8.9 C)
Relative Humidity: 100%
Pressure (altimeter): 29.62 in. Hg (1003 hPa)
Pressure tendency: 0.09 inches (2.9 hPa) lower than three hours ago
ob: KARR 221152Z AUTO 12010KT 2SM VCTS +RA BR BKN004 BKN014 OVC033 09/09 A2962 RMK AO2 LTG DSNT NE-S TSB36E51 SLP033 P0027 60052 70052 T00890089 10089 20067 56029
cycle: 12

Station Type Date Time Source
KARR TAF UTC NOAA

Error!


Example: see airport list